CheckWX is a tool to help pilots better visualize weather data.  It is not intended as a substitute for an official pre-flight weather briefing.

01:13:21 UTC

KAAS METAR
Taylor County Airport
Campbellsville, Kentucky, USA
Current

38 mins ago

KAAS 200035Z AUTO 22003KT 10SM 30/22 A3004 RMK AO1
Observed
Jul-20 @ 00:35 UTC
Wind
  • 220° at 3 KTS
Visibility
10 SM
Temperature
30°C / 86°F
Dewpoint
22°C / 72°F
Heat Index
33°C / 92°F
Humidity
62%
Altimeter
30.04" Hg
Pressure
1017.32 hPa
Previous

58 mins ago

KAAS 200015Z AUTO 24004KT 10SM 30/22 A3004 RMK AO1
Observed
Jul-20 @ 00:15 UTC
Wind
  • 240° at 4 KTS
Visibility
10 SM
Temperature
30°C / 86°F
Dewpoint
22°C / 72°F
Heat Index
33°C / 92°F
Humidity
62%
Altimeter
30.04" Hg
Pressure
1017.32 hPa
Previous

1 hour ago

KAAS 192355Z AUTO 23004KT 10SM 31/21 A3004 RMK AO1
Observed
Jul-19 @ 23:55 UTC
Wind
  • 230° at 4 KTS
Visibility
10 SM
Temperature
31°C / 88°F
Dewpoint
21°C / 70°F
Heat Index
34°C / 93°F
Humidity
55%
Altimeter
30.04" Hg
Pressure
1017.32 hPa